sensor_id;sensor_type;location;lat;lon;timestamp;P1;durP1;ratioP1;P2;durP2;ratioP2
13897;SDS011;7019;50.766;4.474;2022-12-07T00:01:05;25.80;;;19.00;;
13897;SDS011;7019;50.766;4.474;2022-12-07T00:03:34;30.43;;;20.83;;
13897;SDS011;7019;50.766;4.474;2022-12-07T00:06:02;29.37;;;20.10;;
13897;SDS011;7019;50.766;4.474;2022-12-07T00:08:31;34.13;;;21.93;;
13897;SDS011;7019;50.766;4.474;2022-12-07T00:11:00;28.43;;;19.57;;
13897;SDS011;7019;50.766;4.474;2022-12-07T00:13:28;34.03;;;22.43;;
13897;SDS011;7019;50.766;4.474;2022-12-07T00:15:55;29.97;;;21.20;;
13897;SDS011;7019;50.766;4.474;2022-12-07T00:18:25;36.67;;;22.70;;
13897;SDS011;7019;50.766;4.474;2022-12-07T00:20:54;39.30;;;24.73;;
13897;SDS011;7019;50.766;4.474;2022-12-07T00:23:25;49.50;;;29.80;;
13897;SDS011;7019;50.766;4.474;2022-12-07T00:25:52;36.53;;;23.57;;
13897;SDS011;7019;50.766;4.474;2022-12-07T00:28:19;37.17;;;24.97;;
13897;SDS011;7019;50.766;4.474;2022-12-07T00:30:47;35.40;;;22.47;;
13897;SDS011;7019;50.766;4.474;2022-12-07T00:33:14;31.73;;;22.37;;
13897;SDS011;7019;50.766;4.474;2022-12-07T00:35:41;36.87;;;24.83;;
13897;SDS011;7019;50.766;4.474;2022-12-07T00:38:09;35.37;;;24.63;;
13897;SDS011;7019;50.766;4.474;2022-12-07T00:40:36;31.77;;;22.20;;
13897;SDS011;7019;50.766;4.474;2022-12-07T00:43:03;36.13;;;25.17;;
13897;SDS011;7019;50.766;4.474;2022-12-07T00:45:30;37.43;;;24.40;;
13897;SDS011;7019;50.766;4.474;2022-12-07T00:47:57;38.10;;;24.97;;
13897;SDS011;7019;50.766;4.474;2022-12-07T00:50:24;35.83;;;24.87;;
13897;SDS011;7019;50.766;4.474;2022-12-07T00:52:51;36.20;;;25.33;;
13897;SDS011;7019;50.766;4.474;2022-12-07T00:55:20;35.93;;;24.57;;
13897;SDS011;7019;50.766;4.474;2022-12-07T00:57:47;39.20;;;26.50;;
13897;SDS011;7019;50.766;4.474;2022-12-07T01:00:14;39.30;;;25.63;;
13897;SDS011;7019;50.766;4.474;2022-12-07T01:02:42;45.23;;;26.87;;
13897;SDS011;7019;50.766;4.474;2022-12-07T01:05:09;40.37;;;27.57;;
13897;SDS011;7019;50.766;4.474;2022-12-07T01:07:36;49.03;;;27.10;;
13897;SDS011;7019;50.766;4.474;2022-12-07T01:10:03;49.70;;;28.80;;
13897;SDS011;7019;50.766;4.474;2022-12-07T01:12:33;49.60;;;27.67;;
13897;SDS011;7019;50.766;4.474;2022-12-07T01:15:00;45.83;;;27.47;;
13897;SDS011;7019;50.766;4.474;2022-12-07T01:17:28;38.80;;;26.43;;
13897;SDS011;7019;50.766;4.474;2022-12-07T01:19:55;42.20;;;27.03;;
13897;SDS011;7019;50.766;4.474;2022-12-07T01:22:22;39.53;;;25.93;;
13897;SDS011;7019;50.766;4.474;2022-12-07T01:24:49;40.53;;;26.63;;
13897;SDS011;7019;50.766;4.474;2022-12-07T01:27:16;39.80;;;25.83;;
13897;SDS011;7019;50.766;4.474;2022-12-07T01:29:45;44.50;;;27.13;;
13897;SDS011;7019;50.766;4.474;2022-12-07T01:32:12;53.13;;;29.50;;
13897;SDS011;7019;50.766;4.474;2022-12-07T01:34:39;42.33;;;26.77;;
13897;SDS011;7019;50.766;4.474;2022-12-07T01:37:06;44.00;;;26.60;;
13897;SDS011;7019;50.766;4.474;2022-12-07T01:39:33;43.43;;;26.63;;
13897;SDS011;7019;50.766;4.474;2022-12-07T01:42:00;47.33;;;25.87;;
13897;SDS011;7019;50.766;4.474;2022-12-07T01:44:28;41.20;;;24.97;;
13897;SDS011;7019;50.766;4.474;2022-12-07T01:46:59;42.63;;;25.37;;
13897;SDS011;7019;50.766;4.474;2022-12-07T01:49:28;35.07;;;22.23;;
13897;SDS011;7019;50.766;4.474;2022-12-07T01:52:00;35.10;;;23.77;;
13897;SDS011;7019;50.766;4.474;2022-12-07T01:54:35;42.87;;;25.73;;
13897;SDS011;7019;50.766;4.474;2022-12-07T01:57:03;36.07;;;23.73;;
13897;SDS011;7019;50.766;4.474;2022-12-07T01:59:32;30.63;;;22.13;;
13897;SDS011;7019;50.766;4.474;2022-12-07T02:02:02;34.63;;;22.93;;
13897;SDS011;7019;50.766;4.474;2022-12-07T02:04:33;36.17;;;23.57;;
13897;SDS011;7019;50.766;4.474;2022-12-07T02:07:02;33.83;;;22.17;;
13897;SDS011;7019;50.766;4.474;2022-12-07T02:09:31;29.17;;;22.37;;
13897;SDS011;7019;50.766;4.474;2022-12-07T02:11:58;36.43;;;22.83;;
13897;SDS011;7019;50.766;4.474;2022-12-07T02:14:25;38.63;;;24.17;;
13897;SDS011;7019;50.766;4.474;2022-12-07T02:22:46;32.03;;;22.93;;
13897;SDS011;7019;50.766;4.474;2022-12-07T02:25:30;35.23;;;22.37;;
13897;SDS011;7019;50.766;4.474;2022-12-07T02:28:19;38.50;;;24.27;;
13897;SDS011;7019;50.766;4.474;2022-12-07T02:30:55;37.67;;;22.43;;
13897;SDS011;7019;50.766;4.474;2022-12-07T02:33:28;33.97;;;22.73;;
13897;SDS011;7019;50.766;4.474;2022-12-07T02:36:00;30.93;;;21.63;;
13897;SDS011;7019;50.766;4.474;2022-12-07T02:38:34;29.87;;;21.23;;
13897;SDS011;7019;50.766;4.474;2022-12-07T02:41:05;29.67;;;21.13;;
13897;SDS011;7019;50.766;4.474;2022-12-07T02:43:38;29.90;;;21.13;;
13897;SDS011;7019;50.766;4.474;2022-12-07T02:46:11;33.60;;;23.83;;
13897;SDS011;7019;50.766;4.474;2022-12-07T02:48:43;31.20;;;20.60;;
13897;SDS011;7019;50.766;4.474;2022-12-07T02:51:11;29.23;;;20.37;;
13897;SDS011;7019;50.766;4.474;2022-12-07T02:53:39;26.60;;;19.80;;
13897;SDS011;7019;50.766;4.474;2022-12-07T02:56:09;29.83;;;20.80;;
13897;SDS011;7019;50.766;4.474;2022-12-07T02:58:47;32.63;;;19.80;;
13897;SDS011;7019;50.766;4.474;2022-12-07T03:01:24;28.57;;;20.33;;
13897;SDS011;7019;50.766;4.474;2022-12-07T03:03:58;32.57;;;21.40;;
13897;SDS011;7019;50.766;4.474;2022-12-07T03:06:36;25.43;;;18.53;;
13897;SDS011;7019;50.766;4.474;2022-12-07T03:09:10;27.37;;;20.40;;
13897;SDS011;7019;50.766;4.474;2022-12-07T03:11:46;28.07;;;18.50;;
13897;SDS011;7019;50.766;4.474;2022-12-07T03:14:17;29.10;;;17.90;;
13897;SDS011;7019;50.766;4.474;2022-12-07T03:16:52;23.27;;;18.33;;
13897;SDS011;7019;50.766;4.474;2022-12-07T03:19:25;24.57;;;17.63;;
13897;SDS011;7019;50.766;4.474;2022-12-07T03:21:54;24.23;;;18.23;;
13897;SDS011;7019;50.766;4.474;2022-12-07T03:24:26;24.70;;;17.07;;
13897;SDS011;7019;50.766;4.474;2022-12-07T03:26:58;25.23;;;18.13;;
13897;SDS011;7019;50.766;4.474;2022-12-07T03:29:31;25.97;;;16.90;;
13897;SDS011;7019;50.766;4.474;2022-12-07T03:32:06;23.57;;;15.53;;
13897;SDS011;7019;50.766;4.474;2022-12-07T03:34:40;24.70;;;17.80;;
13897;SDS011;7019;50.766;4.474;2022-12-07T03:37:14;24.60;;;17.13;;
13897;SDS011;7019;50.766;4.474;2022-12-07T03:39:49;22.13;;;16.23;;
13897;SDS011;7019;50.766;4.474;2022-12-07T03:42:23;21.77;;;16.53;;
13897;SDS011;7019;50.766;4.474;2022-12-07T03:44:51;24.47;;;16.87;;
13897;SDS011;7019;50.766;4.474;2022-12-07T03:47:20;26.47;;;19.40;;
13897;SDS011;7019;50.766;4.474;2022-12-07T03:49:54;27.00;;;19.17;;
13897;SDS011;7019;50.766;4.474;2022-12-07T03:52:25;27.90;;;18.67;;
13897;SDS011;7019;50.766;4.474;2022-12-07T03:54:59;37.33;;;22.07;;
13897;SDS011;7019;50.766;4.474;2022-12-07T03:57:30;38.27;;;21.23;;
13897;SDS011;7019;50.766;4.474;2022-12-07T03:59:59;28.77;;;20.77;;
13897;SDS011;7019;50.766;4.474;2022-12-07T04:02:28;34.43;;;20.50;;
13897;SDS011;7019;50.766;4.474;2022-12-07T04:04:55;26.67;;;17.87;;
13897;SDS011;7019;50.766;4.474;2022-12-07T04:07:23;27.97;;;19.10;;
13897;SDS011;7019;50.766;4.474;2022-12-07T04:09:50;29.67;;;19.03;;
13897;SDS011;7019;50.766;4.474;2022-12-07T04:12:19;29.37;;;19.50;;
13897;SDS011;7019;50.766;4.474;2022-12-07T04:14:47;34.67;;;21.20;;
13897;SDS011;7019;50.766;4.474;2022-12-07T04:17:14;30.03;;;19.57;;
13897;SDS011;7019;50.766;4.474;2022-12-07T04:19:42;27.53;;;18.83;;
13897;SDS011;7019;50.766;4.474;2022-12-07T04:22:09;28.13;;;18.90;;
13897;SDS011;7019;50.766;4.474;2022-12-07T04:24:37;31.83;;;20.10;;
13897;SDS011;7019;50.766;4.474;2022-12-07T04:27:04;38.90;;;22.63;;
13897;SDS011;7019;50.766;4.474;2022-12-07T04:29:31;27.90;;;18.40;;
13897;SDS011;7019;50.766;4.474;2022-12-07T04:31:58;35.10;;;21.20;;
13897;SDS011;7019;50.766;4.474;2022-12-07T04:34:26;35.83;;;22.60;;
13897;SDS011;7019;50.766;4.474;2022-12-07T04:36:54;38.87;;;22.63;;
13897;SDS011;7019;50.766;4.474;2022-12-07T04:39:23;28.33;;;19.87;;
13897;SDS011;7019;50.766;4.474;2022-12-07T04:41:52;31.83;;;20.97;;
13897;SDS011;7019;50.766;4.474;2022-12-07T04:44:20;35.60;;;23.33;;
13897;SDS011;7019;50.766;4.474;2022-12-07T04:46:48;37.00;;;24.07;;
13897;SDS011;7019;50.766;4.474;2022-12-07T04:49:16;39.33;;;21.97;;
13897;SDS011;7019;50.766;4.474;2022-12-07T04:51:44;36.43;;;23.90;;
13897;SDS011;7019;50.766;4.474;2022-12-07T04:54:13;40.07;;;23.07;;
13897;SDS011;7019;50.766;4.474;2022-12-07T04:56:41;33.77;;;23.97;;
13897;SDS011;7019;50.766;4.474;2022-12-07T04:59:09;29.20;;;19.93;;
13897;SDS011;7019;50.766;4.474;2022-12-07T05:01:37;31.90;;;20.53;;
13897;SDS011;7019;50.766;4.474;2022-12-07T05:04:05;34.17;;;21.97;;
13897;SDS011;7019;50.766;4.474;2022-12-07T05:06:32;38.47;;;23.70;;
13897;SDS011;7019;50.766;4.474;2022-12-07T05:08:59;49.93;;;27.50;;
13897;SDS011;7019;50.766;4.474;2022-12-07T05:11:29;41.43;;;25.53;;
13897;SDS011;7019;50.766;4.474;2022-12-07T05:14:06;39.13;;;23.97;;
13897;SDS011;7019;50.766;4.474;2022-12-07T05:16:36;39.23;;;24.43;;
13897;SDS011;7019;50.766;4.474;2022-12-07T05:19:04;39.67;;;24.33;;
13897;SDS011;7019;50.766;4.474;2022-12-07T05:21:32;41.83;;;23.60;;
13897;SDS011;7019;50.766;4.474;2022-12-07T05:23:59;30.07;;;20.03;;
13897;SDS011;7019;50.766;4.474;2022-12-07T05:26:26;34.17;;;21.00;;
13897;SDS011;7019;50.766;4.474;2022-12-07T05:28:55;36.37;;;23.57;;
13897;SDS011;7019;50.766;4.474;2022-12-07T05:31:23;41.83;;;24.63;;
13897;SDS011;7019;50.766;4.474;2022-12-07T05:33:52;34.10;;;22.67;;
13897;SDS011;7019;50.766;4.474;2022-12-07T05:36:19;43.10;;;25.23;;
13897;SDS011;7019;50.766;4.474;2022-12-07T05:38:47;36.80;;;24.40;;
13897;SDS011;7019;50.766;4.474;2022-12-07T05:41:15;40.93;;;25.70;;
13897;SDS011;7019;50.766;4.474;2022-12-07T05:44:02;30.13;;;22.30;;
13897;SDS011;7019;50.766;4.474;2022-12-07T05:46:29;43.27;;;26.40;;
13897;SDS011;7019;50.766;4.474;2022-12-07T05:48:56;35.67;;;24.97;;
13897;SDS011;7019;50.766;4.474;2022-12-07T05:51:23;34.73;;;22.67;;
13897;SDS011;7019;50.766;4.474;2022-12-07T05:53:50;40.53;;;25.50;;
13897;SDS011;7019;50.766;4.474;2022-12-07T05:56:18;39.27;;;26.23;;
13897;SDS011;7019;50.766;4.474;2022-12-07T05:58:45;37.07;;;25.67;;
13897;SDS011;7019;50.766;4.474;2022-12-07T06:01:31;38.63;;;24.67;;
13897;SDS011;7019;50.766;4.474;2022-12-07T06:03:58;36.50;;;23.50;;
13897;SDS011;7019;50.766;4.474;2022-12-07T06:06:25;38.70;;;22.50;;
13897;SDS011;7019;50.766;4.474;2022-12-07T06:08:52;31.63;;;22.97;;
13897;SDS011;7019;50.766;4.474;2022-12-07T06:11:19;36.93;;;21.47;;
13897;SDS011;7019;50.766;4.474;2022-12-07T06:14:04;30.30;;;20.87;;
13897;SDS011;7019;50.766;4.474;2022-12-07T06:16:32;28.50;;;19.77;;
13897;SDS011;7019;50.766;4.474;2022-12-07T06:18:59;28.93;;;20.13;;
13897;SDS011;7019;50.766;4.474;2022-12-07T06:21:26;34.40;;;20.47;;
13897;SDS011;7019;50.766;4.474;2022-12-07T06:23:53;30.40;;;20.93;;
13897;SDS011;7019;50.766;4.474;2022-12-07T06:26:21;42.50;;;22.20;;
13897;SDS011;7019;50.766;4.474;2022-12-07T06:28:48;31.67;;;20.87;;
13897;SDS011;7019;50.766;4.474;2022-12-07T06:31:16;32.13;;;22.20;;
13897;SDS011;7019;50.766;4.474;2022-12-07T06:33:44;29.43;;;19.93;;
13897;SDS011;7019;50.766;4.474;2022-12-07T06:36:11;29.73;;;20.33;;
13897;SDS011;7019;50.766;4.474;2022-12-07T06:38:39;25.13;;;19.30;;
13897;SDS011;7019;50.766;4.474;2022-12-07T06:41:06;28.97;;;19.00;;
13897;SDS011;7019;50.766;4.474;2022-12-07T06:43:33;25.60;;;18.63;;
13897;SDS011;7019;50.766;4.474;2022-12-07T06:46:00;42.23;;;20.63;;
13897;SDS011;7019;50.766;4.474;2022-12-07T06:48:27;30.03;;;19.40;;
13897;SDS011;7019;50.766;4.474;2022-12-07T06:50:56;25.57;;;18.00;;
13897;SDS011;7019;50.766;4.474;2022-12-07T06:53:23;27.47;;;17.87;;
13897;SDS011;7019;50.766;4.474;2022-12-07T06:55:50;27.03;;;17.80;;
13897;SDS011;7019;50.766;4.474;2022-12-07T06:58:17;32.70;;;18.93;;
13897;SDS011;7019;50.766;4.474;2022-12-07T07:00:44;30.50;;;19.23;;
13897;SDS011;7019;50.766;4.474;2022-12-07T07:03:13;23.97;;;18.00;;
13897;SDS011;7019;50.766;4.474;2022-12-07T07:05:41;31.73;;;21.33;;
13897;SDS011;7019;50.766;4.474;2022-12-07T07:08:10;27.07;;;19.43;;
13897;SDS011;7019;50.766;4.474;2022-12-07T07:10:37;30.40;;;19.83;;
13897;SDS011;7019;50.766;4.474;2022-12-07T07:13:05;30.60;;;21.47;;
13897;SDS011;7019;50.766;4.474;2022-12-07T07:15:32;31.17;;;21.57;;
13897;SDS011;7019;50.766;4.474;2022-12-07T07:18:00;27.70;;;19.37;;
13897;SDS011;7019;50.766;4.474;2022-12-07T07:20:28;26.87;;;19.10;;
13897;SDS011;7019;50.766;4.474;2022-12-07T07:22:55;29.47;;;20.83;;
13897;SDS011;7019;50.766;4.474;2022-12-07T07:25:24;25.90;;;18.33;;
13897;SDS011;7019;50.766;4.474;2022-12-07T07:27:51;28.00;;;19.40;;
13897;SDS011;7019;50.766;4.474;2022-12-07T07:30:19;32.33;;;19.43;;
13897;SDS011;7019;50.766;4.474;2022-12-07T07:32:46;26.43;;;18.77;;
13897;SDS011;7019;50.766;4.474;2022-12-07T07:35:14;29.50;;;18.67;;
13897;SDS011;7019;50.766;4.474;2022-12-07T07:37:41;28.27;;;18.23;;
13897;SDS011;7019;50.766;4.474;2022-12-07T07:40:08;27.90;;;17.37;;
13897;SDS011;7019;50.766;4.474;2022-12-07T07:42:37;23.60;;;17.23;;
13897;SDS011;7019;50.766;4.474;2022-12-07T07:45:05;27.43;;;17.13;;
13897;SDS011;7019;50.766;4.474;2022-12-07T07:47:33;23.27;;;18.40;;
13897;SDS011;7019;50.766;4.474;2022-12-07T07:50:00;26.70;;;18.13;;
13897;SDS011;7019;50.766;4.474;2022-12-07T07:52:27;27.37;;;18.73;;
13897;SDS011;7019;50.766;4.474;2022-12-07T07:54:54;35.03;;;22.10;;
13897;SDS011;7019;50.766;4.474;2022-12-07T07:57:21;28.43;;;19.67;;
13897;SDS011;7019;50.766;4.474;2022-12-07T07:59:50;27.57;;;19.37;;
13897;SDS011;7019;50.766;4.474;2022-12-07T08:02:17;33.70;;;19.60;;
13897;SDS011;7019;50.766;4.474;2022-12-07T08:04:46;33.93;;;21.47;;
13897;SDS011;7019;50.766;4.474;2022-12-07T08:07:13;32.30;;;19.50;;
13897;SDS011;7019;50.766;4.474;2022-12-07T08:09:41;31.83;;;19.93;;
13897;SDS011;7019;50.766;4.474;2022-12-07T08:12:08;25.67;;;18.23;;
13897;SDS011;7019;50.766;4.474;2022-12-07T08:14:35;30.00;;;18.90;;
13897;SDS011;7019;50.766;4.474;2022-12-07T08:17:04;25.73;;;17.63;;
13897;SDS011;7019;50.766;4.474;2022-12-07T08:19:31;30.83;;;19.43;;
13897;SDS011;7019;50.766;4.474;2022-12-07T08:21:59;28.03;;;20.10;;
13897;SDS011;7019;50.766;4.474;2022-12-07T08:24:26;26.27;;;18.20;;
13897;SDS011;7019;50.766;4.474;2022-12-07T08:26:53;27.40;;;18.30;;
13897;SDS011;7019;50.766;4.474;2022-12-07T08:29:21;24.13;;;18.00;;
13897;SDS011;7019;50.766;4.474;2022-12-07T08:31:48;32.73;;;21.50;;
13897;SDS011;7019;50.766;4.474;2022-12-07T08:34:16;27.33;;;18.83;;
13897;SDS011;7019;50.766;4.474;2022-12-07T08:36:43;25.83;;;19.17;;
13897;SDS011;7019;50.766;4.474;2022-12-07T08:39:10;28.67;;;20.10;;
13897;SDS011;7019;50.766;4.474;2022-12-07T08:41:38;38.53;;;20.73;;
13897;SDS011;7019;50.766;4.474;2022-12-07T08:44:05;34.77;;;21.93;;
13897;SDS011;7019;50.766;4.474;2022-12-07T08:46:33;32.07;;;19.20;;
13897;SDS011;7019;50.766;4.474;2022-12-07T08:49:04;28.50;;;19.70;;
13897;SDS011;7019;50.766;4.474;2022-12-07T08:51:35;28.10;;;19.30;;
13897;SDS011;7019;50.766;4.474;2022-12-07T08:54:04;29.63;;;20.43;;
13897;SDS011;7019;50.766;4.474;2022-12-07T08:56:35;25.33;;;17.97;;
13897;SDS011;7019;50.766;4.474;2022-12-07T08:59:02;30.20;;;20.77;;
13897;SDS011;7019;50.766;4.474;2022-12-07T09:01:30;29.23;;;19.47;;
13897;SDS011;7019;50.766;4.474;2022-12-07T09:03:58;30.33;;;20.93;;
13897;SDS011;7019;50.766;4.474;2022-12-07T09:06:28;29.17;;;18.77;;
13897;SDS011;7019;50.766;4.474;2022-12-07T09:08:57;30.50;;;19.63;;
13897;SDS011;7019;50.766;4.474;2022-12-07T09:11:27;28.67;;;19.03;;
13897;SDS011;7019;50.766;4.474;2022-12-07T09:13:54;30.83;;;19.63;;
13897;SDS011;7019;50.766;4.474;2022-12-07T09:16:22;29.90;;;19.13;;
13897;SDS011;7019;50.766;4.474;2022-12-07T09:18:49;30.97;;;18.43;;
13897;SDS011;7019;50.766;4.474;2022-12-07T09:21:16;26.57;;;19.23;;
13897;SDS011;7019;50.766;4.474;2022-12-07T09:23:43;28.07;;;17.77;;
13897;SDS011;7019;50.766;4.474;2022-12-07T09:26:11;25.80;;;17.33;;
13897;SDS011;7019;50.766;4.474;2022-12-07T09:28:38;29.90;;;17.23;;
13897;SDS011;7019;50.766;4.474;2022-12-07T09:31:06;27.03;;;17.80;;
13897;SDS011;7019;50.766;4.474;2022-12-07T09:33:33;25.07;;;17.53;;
13897;SDS011;7019;50.766;4.474;2022-12-07T09:36:00;24.47;;;17.63;;
13897;SDS011;7019;50.766;4.474;2022-12-07T09:38:27;22.60;;;14.73;;
13897;SDS011;7019;50.766;4.474;2022-12-07T09:40:55;27.03;;;15.20;;
13897;SDS011;7019;50.766;4.474;2022-12-07T09:43:26;22.17;;;15.03;;
13897;SDS011;7019;50.766;4.474;2022-12-07T09:46:09;20.70;;;14.10;;
13897;SDS011;7019;50.766;4.474;2022-12-07T09:48:41;22.43;;;12.43;;
13897;SDS011;7019;50.766;4.474;2022-12-07T09:51:13;19.13;;;12.77;;
13897;SDS011;7019;50.766;4.474;2022-12-07T09:53:42;17.80;;;12.23;;
13897;SDS011;7019;50.766;4.474;2022-12-07T09:56:11;17.93;;;13.00;;
13897;SDS011;7019;50.766;4.474;2022-12-07T09:58:41;19.83;;;12.47;;
13897;SDS011;7019;50.766;4.474;2022-12-07T10:01:09;15.13;;;11.27;;
13897;SDS011;7019;50.766;4.474;2022-12-07T10:03:39;16.10;;;11.30;;
13897;SDS011;7019;50.766;4.474;2022-12-07T10:06:10;17.67;;;10.87;;
13897;SDS011;7019;50.766;4.474;2022-12-07T10:08:39;15.33;;;10.73;;
13897;SDS011;7019;50.766;4.474;2022-12-07T10:11:08;18.40;;;10.30;;
13897;SDS011;7019;50.766;4.474;2022-12-07T10:13:37;14.43;;;10.17;;
13897;SDS011;7019;50.766;4.474;2022-12-07T10:16:08;18.40;;;10.57;;
13897;SDS011;7019;50.766;4.474;2022-12-07T10:18:58;16.27;;;10.37;;
13897;SDS011;7019;50.766;4.474;2022-12-07T10:21:59;16.80;;;10.60;;
13897;SDS011;7019;50.766;4.474;2022-12-07T10:24:31;16.63;;;10.37;;
13897;SDS011;7019;50.766;4.474;2022-12-07T10:26:58;15.07;;;9.93;;
13897;SDS011;7019;50.766;4.474;2022-12-07T10:29:28;16.57;;;9.40;;
13897;SDS011;7019;50.766;4.474;2022-12-07T10:31:59;13.37;;;9.13;;
13897;SDS011;7019;50.766;4.474;2022-12-07T10:34:28;16.03;;;8.97;;
13897;SDS011;7019;50.766;4.474;2022-12-07T10:37:07;13.70;;;8.77;;
13897;SDS011;7019;50.766;4.474;2022-12-07T10:39:43;15.73;;;9.73;;
13897;SDS011;7019;50.766;4.474;2022-12-07T10:42:18;14.03;;;9.07;;
13897;SDS011;7019;50.766;4.474;2022-12-07T10:44:47;15.23;;;9.07;;
13897;SDS011;7019;50.766;4.474;2022-12-07T10:47:20;15.43;;;8.37;;
13897;SDS011;7019;50.766;4.474;2022-12-07T10:53:03;10.67;;;7.27;;
13897;SDS011;7019;50.766;4.474;2022-12-07T10:55:47;13.40;;;7.50;;
13897;SDS011;7019;50.766;4.474;2022-12-07T10:58:42;13.37;;;7.77;;
13897;SDS011;7019;50.766;4.474;2022-12-07T11:01:23;15.20;;;8.23;;
13897;SDS011;7019;50.766;4.474;2022-12-07T11:04:02;10.93;;;7.33;;
13897;SDS011;7019;50.766;4.474;2022-12-07T11:06:46;13.93;;;7.50;;
13897;SDS011;7019;50.766;4.474;2022-12-07T11:09:34;9.53;;;6.87;;
13897;SDS011;7019;50.766;4.474;2022-12-07T11:12:29;14.17;;;6.87;;
13897;SDS011;7019;50.766;4.474;2022-12-07T11:15:11;14.90;;;6.83;;
13897;SDS011;7019;50.766;4.474;2022-12-07T11:17:45;10.77;;;6.93;;
13897;SDS011;7019;50.766;4.474;2022-12-07T11:20:32;13.43;;;6.80;;
13897;SDS011;7019;50.766;4.474;2022-12-07T11:23:09;9.77;;;6.33;;
13897;SDS011;7019;50.766;4.474;2022-12-07T11:25:45;13.30;;;6.40;;
13897;SDS011;7019;50.766;4.474;2022-12-07T11:28:22;13.60;;;6.87;;
13897;SDS011;7019;50.766;4.474;2022-12-07T11:31:03;9.97;;;5.63;;
13897;SDS011;7019;50.766;4.474;2022-12-07T11:33:40;13.53;;;6.87;;
13897;SDS011;7019;50.766;4.474;2022-12-07T11:36:17;10.03;;;7.07;;
13897;SDS011;7019;50.766;4.474;2022-12-07T11:39:00;9.57;;;6.20;;
13897;SDS011;7019;50.766;4.474;2022-12-07T11:41:31;10.57;;;5.87;;
13897;SDS011;7019;50.766;4.474;2022-12-07T11:44:02;9.33;;;6.10;;
13897;SDS011;7019;50.766;4.474;2022-12-07T11:46:41;10.60;;;5.93;;
13897;SDS011;7019;50.766;4.474;2022-12-07T11:49:15;11.03;;;5.53;;
13897;SDS011;7019;50.766;4.474;2022-12-07T11:51:50;10.13;;;6.03;;
13897;SDS011;7019;50.766;4.474;2022-12-07T11:54:23;5.97;;;5.20;;
13897;SDS011;7019;50.766;4.474;2022-12-07T11:56:56;9.17;;;5.50;;
13897;SDS011;7019;50.766;4.474;2022-12-07T11:59:31;10.27;;;6.17;;
13897;SDS011;7019;50.766;4.474;2022-12-07T12:02:09;10.03;;;5.80;;
13897;SDS011;7019;50.766;4.474;2022-12-07T12:04:43;13.23;;;6.33;;
13897;SDS011;7019;50.766;4.474;2022-12-07T12:07:19;11.07;;;6.13;;
13897;SDS011;7019;50.766;4.474;2022-12-07T12:09:49;13.40;;;6.10;;
13897;SDS011;7019;50.766;4.474;2022-12-07T12:12:23;11.40;;;6.60;;
13897;SDS011;7019;50.766;4.474;2022-12-07T12:15:08;11.07;;;6.33;;
13897;SDS011;7019;50.766;4.474;2022-12-07T12:17:50;11.13;;;6.83;;
13897;SDS011;7019;50.766;4.474;2022-12-07T12:20:32;9.13;;;7.00;;
13897;SDS011;7019;50.766;4.474;2022-12-07T12:23:07;20.10;;;6.73;;
13897;SDS011;7019;50.766;4.474;2022-12-07T12:25:40;12.50;;;6.70;;
13897;SDS011;7019;50.766;4.474;2022-12-07T12:28:18;12.43;;;6.70;;
13897;SDS011;7019;50.766;4.474;2022-12-07T12:31:04;11.10;;;6.43;;
13897;SDS011;7019;50.766;4.474;2022-12-07T12:33:32;10.33;;;6.83;;
13897;SDS011;7019;50.766;4.474;2022-12-07T12:41:54;10.83;;;5.83;;
13897;SDS011;7019;50.766;4.474;2022-12-07T12:44:39;16.67;;;6.40;;
13897;SDS011;7019;50.766;4.474;2022-12-07T12:53:01;5.93;;;4.10;;
13897;SDS011;7019;50.766;4.474;2022-12-07T12:58:43;8.07;;;4.37;;
13897;SDS011;7019;50.766;4.474;2022-12-07T13:04:12;7.13;;;3.47;;
13897;SDS011;7019;50.766;4.474;2022-12-07T13:06:49;5.17;;;2.80;;
13897;SDS011;7019;50.766;4.474;2022-12-07T13:09:21;6.67;;;2.47;;
13897;SDS011;7019;50.766;4.474;2022-12-07T13:11:55;6.23;;;2.07;;
13897;SDS011;7019;50.766;4.474;2022-12-07T13:23:36;4.63;;;2.20;;
13897;SDS011;7019;50.766;4.474;2022-12-07T13:26:06;3.27;;;2.03;;
13897;SDS011;7019;50.766;4.474;2022-12-07T13:28:41;6.60;;;2.50;;
13897;SDS011;7019;50.766;4.474;2022-12-07T13:31:13;12.53;;;3.40;;
13897;SDS011;7019;50.766;4.474;2022-12-07T13:33:56;4.47;;;2.10;;
13897;SDS011;7019;50.766;4.474;2022-12-07T13:36:23;7.43;;;3.07;;
13897;SDS011;7019;50.766;4.474;2022-12-07T13:38:54;5.93;;;2.53;;
13897;SDS011;7019;50.766;4.474;2022-12-07T13:41:22;5.10;;;2.63;;
13897;SDS011;7019;50.766;4.474;2022-12-07T13:43:52;7.73;;;2.97;;
13897;SDS011;7019;50.766;4.474;2022-12-07T13:46:27;5.60;;;3.27;;
13897;SDS011;7019;50.766;4.474;2022-12-07T13:49:01;7.90;;;2.90;;
13897;SDS011;7019;50.766;4.474;2022-12-07T13:51:29;4.37;;;3.07;;
13897;SDS011;7019;50.766;4.474;2022-12-07T13:54:08;6.33;;;3.70;;
13897;SDS011;7019;50.766;4.474;2022-12-07T13:56:37;5.90;;;2.27;;
13897;SDS011;7019;50.766;4.474;2022-12-07T13:59:07;9.27;;;2.70;;
13897;SDS011;7019;50.766;4.474;2022-12-07T14:01:40;7.73;;;2.33;;
13897;SDS011;7019;50.766;4.474;2022-12-07T14:07:00;8.63;;;3.20;;
13897;SDS011;7019;50.766;4.474;2022-12-07T14:09:54;7.03;;;2.27;;
13897;SDS011;7019;50.766;4.474;2022-12-07T14:12:24;4.67;;;2.53;;
13897;SDS011;7019;50.766;4.474;2022-12-07T14:14:57;4.53;;;2.83;;
13897;SDS011;7019;50.766;4.474;2022-12-07T14:17:26;4.77;;;2.73;;
13897;SDS011;7019;50.766;4.474;2022-12-07T14:19:54;6.60;;;2.37;;
13897;SDS011;7019;50.766;4.474;2022-12-07T14:22:24;8.03;;;3.27;;
13897;SDS011;7019;50.766;4.474;2022-12-07T14:25:09;8.00;;;3.10;;
13897;SDS011;7019;50.766;4.474;2022-12-07T14:27:47;7.87;;;3.20;;
13897;SDS011;7019;50.766;4.474;2022-12-07T14:30:18;7.57;;;3.70;;
13897;SDS011;7019;50.766;4.474;2022-12-07T14:32:46;4.53;;;2.87;;
13897;SDS011;7019;50.766;4.474;2022-12-07T14:37:46;9.17;;;3.93;;
13897;SDS011;7019;50.766;4.474;2022-12-07T14:40:17;14.70;;;6.07;;
13897;SDS011;7019;50.766;4.474;2022-12-07T14:42:45;11.17;;;4.77;;
13897;SDS011;7019;50.766;4.474;2022-12-07T14:45:15;9.53;;;4.50;;
13897;SDS011;7019;50.766;4.474;2022-12-07T14:47:43;14.57;;;6.00;;
13897;SDS011;7019;50.766;4.474;2022-12-07T14:50:11;8.17;;;4.57;;
13897;SDS011;7019;50.766;4.474;2022-12-07T14:52:39;5.73;;;4.40;;
13897;SDS011;7019;50.766;4.474;2022-12-07T14:55:12;12.50;;;6.23;;
13897;SDS011;7019;50.766;4.474;2022-12-07T14:57:45;8.33;;;4.53;;
13897;SDS011;7019;50.766;4.474;2022-12-07T15:00:13;7.87;;;4.47;;
13897;SDS011;7019;50.766;4.474;2022-12-07T15:02:42;10.57;;;4.97;;
13897;SDS011;7019;50.766;4.474;2022-12-07T15:05:10;6.60;;;3.53;;
13897;SDS011;7019;50.766;4.474;2022-12-07T15:07:38;11.43;;;3.47;;
13897;SDS011;7019;50.766;4.474;2022-12-07T15:10:06;9.07;;;3.77;;
13897;SDS011;7019;50.766;4.474;2022-12-07T15:12:40;4.37;;;2.43;;
13897;SDS011;7019;50.766;4.474;2022-12-07T15:15:08;6.57;;;1.70;;
13897;SDS011;7019;50.766;4.474;2022-12-07T15:17:35;7.13;;;3.03;;
13897;SDS011;7019;50.766;4.474;2022-12-07T15:20:07;6.10;;;1.83;;
13897;SDS011;7019;50.766;4.474;2022-12-07T15:22:37;4.13;;;1.90;;
13897;SDS011;7019;50.766;4.474;2022-12-07T15:25:05;7.77;;;1.90;;
13897;SDS011;7019;50.766;4.474;2022-12-07T15:27:33;2.60;;;1.60;;
13897;SDS011;7019;50.766;4.474;2022-12-07T15:30:02;6.93;;;2.77;;
13897;SDS011;7019;50.766;4.474;2022-12-07T15:32:29;8.63;;;3.83;;
13897;SDS011;7019;50.766;4.474;2022-12-07T15:34:56;6.67;;;3.17;;
13897;SDS011;7019;50.766;4.474;2022-12-07T15:40:52;6.23;;;3.00;;
13897;SDS011;7019;50.766;4.474;2022-12-07T15:43:36;5.93;;;2.93;;
13897;SDS011;7019;50.766;4.474;2022-12-07T15:46:22;5.07;;;3.60;;